createdAt,value
2023-03-18T00:00:24.258Z,19.35
2023-03-18T00:02:50.573Z,19.34
2023-03-18T00:05:17.295Z,19.33
2023-03-18T00:07:43.622Z,19.31
2023-03-18T00:10:10.653Z,19.30
2023-03-18T00:12:39.005Z,19.30
2023-03-18T00:15:09.512Z,19.29
2023-03-18T00:17:37.626Z,19.27
2023-03-18T00:20:05.875Z,19.27
2023-03-18T00:22:36.289Z,19.24
2023-03-18T00:25:03.664Z,19.23
2023-03-18T00:27:30.205Z,19.22
2023-03-18T00:29:57.752Z,19.20
2023-03-18T00:32:25.889Z,19.18
2023-03-18T00:34:53.056Z,19.17
2023-03-18T00:37:30.224Z,19.16
2023-03-18T00:40:05.036Z,19.15
2023-03-18T00:42:37.228Z,19.15
2023-03-18T00:45:04.406Z,19.14
2023-03-18T00:47:30.741Z,19.14
2023-03-18T00:49:57.113Z,19.14
2023-03-18T00:52:23.627Z,19.14
2023-03-18T00:54:50.371Z,19.14
2023-03-18T00:57:17.414Z,19.14
2023-03-18T00:59:44.228Z,19.14
2023-03-18T01:02:10.764Z,19.14
2023-03-18T01:04:37.293Z,19.14
2023-03-18T01:07:03.589Z,19.17
2023-03-18T01:09:29.830Z,19.17
2023-03-18T01:11:56.102Z,19.17
2023-03-18T01:14:22.336Z,19.16
2023-03-18T01:16:49.240Z,19.13
2023-03-18T01:19:15.937Z,19.12
2023-03-18T01:21:42.430Z,19.11
2023-03-18T01:24:10.200Z,19.10
2023-03-18T01:26:36.812Z,19.11
2023-03-18T01:29:03.778Z,19.11
2023-03-18T01:31:30.155Z,19.11
2023-03-18T01:33:56.692Z,19.12
2023-03-18T01:36:23.047Z,19.13
2023-03-18T01:38:49.288Z,19.12
2023-03-18T01:41:17.117Z,19.11
2023-03-18T01:43:44.198Z,19.11
2023-03-18T01:46:30.326Z,19.10
2023-03-18T01:48:56.950Z,19.09
2023-03-18T01:51:24.895Z,19.07
2023-03-18T01:53:52.214Z,19.05
2023-03-18T01:56:18.695Z,19.03
2023-03-18T01:58:46.534Z,19.02
2023-03-18T02:01:17.979Z,18.99
2023-03-18T02:06:12.285Z,18.95
2023-03-18T02:08:39.710Z,18.95
2023-03-18T02:11:06.824Z,18.94
2023-03-18T02:13:35.790Z,18.92
2023-03-18T02:16:05.074Z,18.91
2023-03-18T02:18:35.142Z,18.92
2023-03-18T02:21:20.858Z,18.91
2023-03-18T02:23:49.958Z,18.91
2023-03-18T02:26:37.241Z,18.90
2023-03-18T02:29:05.803Z,18.89
2023-03-18T02:31:33.289Z,18.88
2023-03-18T02:34:00.106Z,18.89
2023-03-18T02:36:30.180Z,18.88
2023-03-18T02:38:57.351Z,18.89
2023-03-18T02:41:25.354Z,18.91
2023-03-18T02:43:52.257Z,18.92
2023-03-18T02:46:40.842Z,18.92
2023-03-18T02:49:07.908Z,18.92
2023-03-18T02:51:35.484Z,18.94
2023-03-18T02:54:04.520Z,18.93
2023-03-18T02:56:30.859Z,18.95
2023-03-18T02:58:58.010Z,18.96
2023-03-18T03:01:24.692Z,18.96
2023-03-18T03:03:51.627Z,18.96
2023-03-18T03:06:18.022Z,18.96
2023-03-18T03:08:44.734Z,18.95
2023-03-18T03:11:11.496Z,18.96
2023-03-18T03:13:39.342Z,18.97
2023-03-18T03:16:05.867Z,18.96
2023-03-18T03:18:32.125Z,18.95
2023-03-18T03:20:58.766Z,18.96
2023-03-18T03:23:25.273Z,18.93
2023-03-18T03:25:51.514Z,18.92
2023-03-18T03:28:17.773Z,18.92
2023-03-18T03:30:44.482Z,18.91
2023-03-18T03:33:10.961Z,18.88
2023-03-18T03:35:38.640Z,18.85
2023-03-18T03:38:05.070Z,18.83
2023-03-18T03:40:31.910Z,18.80
2023-03-18T03:42:58.906Z,18.77
2023-03-18T03:45:25.365Z,18.74
2023-03-18T03:47:52.395Z,18.74
2023-03-18T03:50:19.045Z,18.73
2023-03-18T03:52:45.576Z,18.71
2023-03-18T03:55:14.315Z,18.72
2023-03-18T03:57:40.633Z,18.71
2023-03-18T04:00:10.157Z,18.71
2023-03-18T04:02:37.449Z,18.69
2023-03-18T04:05:04.130Z,18.68
2023-03-18T04:07:30.635Z,18.66
2023-03-18T04:09:57.344Z,18.64
2023-03-18T04:12:23.672Z,18.62
2023-03-18T04:14:51.826Z,18.60
2023-03-18T04:17:18.221Z,18.58
2023-03-18T04:19:44.461Z,18.53
2023-03-18T04:22:10.788Z,18.52
2023-03-18T04:24:37.394Z,18.50
2023-03-18T04:27:03.899Z,18.47
2023-03-18T04:29:30.805Z,18.46
2023-03-18T04:31:57.056Z,18.43
2023-03-18T04:34:24.079Z,18.40
2023-03-18T04:36:50.383Z,18.36
2023-03-18T04:39:16.740Z,18.31
2023-03-18T04:41:43.094Z,18.29
2023-03-18T04:44:09.377Z,18.24
2023-03-18T04:46:36.212Z,18.22
2023-03-18T04:49:02.848Z,18.19
2023-03-18T04:51:29.339Z,18.16
2023-03-18T04:53:55.615Z,18.12
2023-03-18T04:56:22.143Z,18.10
2023-03-18T04:58:48.527Z,18.09
2023-03-18T05:01:15.033Z,18.06
2023-03-18T05:03:41.770Z,18.05
2023-03-18T05:06:09.524Z,18.03
2023-03-18T05:08:35.856Z,18.02
2023-03-18T05:11:02.176Z,18.01
2023-03-18T05:13:28.674Z,17.97
2023-03-18T05:15:55.134Z,17.95
2023-03-18T05:18:21.398Z,17.93
2023-03-18T05:20:48.154Z,17.91
2023-03-18T05:23:14.586Z,17.89
2023-03-18T05:25:41.065Z,17.87
2023-03-18T05:28:10.143Z,17.85
2023-03-18T05:30:39.788Z,17.86
2023-03-18T05:33:06.160Z,17.84
2023-03-18T05:35:32.645Z,17.82
2023-03-18T05:37:59.392Z,17.82
2023-03-18T05:40:25.682Z,17.82
2023-03-18T05:42:56.238Z,17.83
2023-03-18T05:45:23.076Z,17.83
2023-03-18T05:47:49.361Z,17.82
2023-03-18T05:50:18.823Z,17.82
2023-03-18T05:52:45.221Z,17.83
2023-03-18T05:55:13.707Z,17.85
2023-03-18T05:57:40.546Z,17.85
2023-03-18T06:00:07.223Z,17.86
2023-03-18T06:02:33.519Z,17.88
2023-03-18T06:04:59.954Z,17.88
2023-03-18T06:07:27.442Z,17.89
2023-03-18T06:09:53.682Z,17.89
2023-03-18T06:12:23.008Z,17.90
2023-03-18T06:14:49.338Z,17.91
2023-03-18T06:17:16.429Z,17.92
2023-03-18T06:19:42.716Z,17.94
2023-03-18T06:22:09.904Z,17.97
2023-03-18T06:24:36.282Z,17.98
2023-03-18T06:27:02.599Z,17.98
2023-03-18T06:29:29.755Z,18.02
2023-03-18T06:31:56.022Z,18.02
2023-03-18T06:34:22.507Z,18.03
2023-03-18T06:36:49.814Z,18.05
2023-03-18T06:39:16.112Z,18.06
2023-03-18T06:41:42.394Z,18.09
2023-03-18T06:44:08.648Z,18.11
2023-03-18T06:46:35.845Z,18.13
2023-03-18T06:49:02.481Z,18.15
2023-03-18T06:51:28.760Z,18.16
2023-03-18T06:53:55.252Z,18.19
2023-03-18T06:56:22.039Z,18.21
2023-03-18T06:58:48.376Z,18.23
2023-03-18T07:01:15.351Z,18.27
2023-03-18T07:03:41.902Z,18.30
2023-03-18T07:06:10.399Z,18.34
2023-03-18T07:08:37.058Z,18.38
2023-03-18T07:11:03.891Z,18.42
2023-03-18T07:13:30.215Z,18.45
2023-03-18T07:15:57.221Z,18.48
2023-03-18T07:18:23.794Z,18.52
2023-03-18T07:20:50.275Z,18.56
2023-03-18T07:23:16.943Z,18.59
2023-03-18T07:25:44.769Z,18.61
2023-03-18T07:28:11.133Z,18.64
2023-03-18T07:30:38.417Z,18.67
2023-03-18T07:33:05.067Z,18.69
2023-03-18T07:35:31.962Z,18.70
2023-03-18T07:37:58.753Z,18.66
2023-03-18T07:40:25.262Z,18.67
2023-03-18T07:42:51.663Z,18.68
2023-03-18T07:45:18.125Z,18.69
2023-03-18T07:47:47.039Z,18.71
2023-03-18T07:50:13.825Z,18.70
2023-03-18T07:52:40.506Z,18.72
2023-03-18T07:55:09.021Z,18.75
2023-03-18T07:57:35.551Z,18.75
2023-03-18T08:00:02.467Z,18.77
2023-03-18T08:02:28.761Z,18.81
2023-03-18T08:04:55.448Z,18.84
2023-03-18T08:07:23.162Z,18.86
2023-03-18T08:09:50.569Z,18.89
2023-03-18T08:12:19.062Z,18.91
2023-03-18T08:14:45.538Z,18.95
2023-03-18T08:17:12.149Z,19.00
2023-03-18T08:19:38.641Z,19.06
2023-03-18T08:22:04.934Z,19.10
2023-03-18T08:24:31.410Z,19.16
2023-03-18T08:26:57.777Z,19.24
2023-03-18T08:29:24.016Z,19.34
2023-03-18T08:31:51.163Z,19.43
2023-03-18T08:34:17.457Z,19.52
2023-03-18T08:36:43.705Z,19.63
2023-03-18T08:39:11.120Z,19.72
2023-03-18T08:41:37.567Z,19.82
2023-03-18T08:44:06.685Z,19.90
2023-03-18T08:46:32.988Z,19.98
2023-03-18T08:48:59.894Z,20.06
2023-03-18T08:51:26.786Z,20.12
2023-03-18T08:53:53.141Z,20.18
2023-03-18T08:56:19.388Z,20.23
2023-03-18T08:58:45.936Z,20.26
2023-03-18T09:01:12.566Z,20.28
2023-03-18T09:03:39.321Z,20.31
2023-03-18T09:06:05.815Z,20.33
2023-03-18T09:08:32.732Z,20.35
2023-03-18T09:10:59.899Z,20.36
2023-03-18T09:13:26.607Z,20.38
2023-03-18T09:15:53.106Z,20.43
2023-03-18T09:18:19.486Z,20.47
2023-03-18T09:20:46.826Z,20.52
2023-03-18T09:23:13.909Z,20.58
2023-03-18T09:25:43.040Z,20.64
2023-03-18T09:28:09.877Z,20.69
2023-03-18T09:30:38.032Z,20.73
2023-03-18T09:33:06.903Z,20.77
2023-03-18T09:35:33.838Z,20.79
2023-03-18T09:38:00.511Z,20.83
2023-03-18T11:02:02.520Z,16.41
2023-03-18T11:04:31.970Z,17.30
2023-03-18T11:07:03.222Z,17.95
2023-03-18T11:09:36.507Z,18.51
2023-03-18T11:12:25.748Z,18.95
2023-03-18T11:14:53.722Z,19.40
2023-03-18T11:17:22.445Z,19.71
2023-03-18T11:20:00.706Z,19.97
2023-03-18T11:22:28.278Z,20.23
2023-03-18T11:25:16.974Z,20.44
2023-03-18T11:27:48.937Z,20.65
2023-03-18T11:30:33.089Z,20.83
2023-03-18T11:33:13.108Z,20.95
2023-03-18T11:35:52.059Z,21.11
2023-03-18T11:38:28.675Z,21.24
2023-03-18T11:41:08.585Z,21.38
2023-03-18T11:43:37.950Z,21.47
2023-03-18T11:46:07.201Z,21.53
2023-03-18T11:48:39.934Z,21.56
2023-03-18T11:51:31.836Z,21.59
2023-03-18T11:53:58.151Z,21.66
2023-03-18T11:56:41.468Z,21.66
2023-03-18T11:59:18.135Z,21.73
2023-03-18T12:02:07.734Z,21.78
2023-03-18T12:05:21.394Z,21.78
2023-03-18T12:08:03.275Z,21.83
2023-03-18T12:10:59.213Z,21.85
2023-03-18T12:14:07.975Z,21.91
2023-03-18T12:17:07.945Z,21.96
2023-03-18T12:19:53.027Z,22.03
2023-03-18T12:22:28.482Z,22.09
2023-03-18T12:25:07.339Z,22.13
2023-03-18T12:28:01.075Z,22.13
2023-03-18T12:30:40.861Z,22.17
2023-03-18T12:33:28.268Z,22.22
2023-03-18T12:36:00.848Z,22.29
2023-03-18T12:38:45.179Z,22.33
2023-03-18T12:41:37.216Z,22.34
2023-03-18T12:44:23.334Z,22.39
2023-03-18T12:46:58.726Z,22.42
2023-03-18T12:49:43.304Z,22.43
2023-03-18T12:52:21.950Z,22.49
2023-03-18T12:55:11.646Z,22.54
2023-03-18T12:57:50.352Z,22.59
2023-03-18T13:00:39.978Z,22.65
2023-03-18T13:03:31.557Z,22.70
2023-03-18T13:06:05.475Z,22.76
2023-03-18T13:08:44.018Z,22.81
2023-03-18T13:11:44.800Z,22.81
2023-03-18T13:14:17.664Z,22.87
2023-03-18T13:16:44.392Z,22.92
2023-03-18T13:19:12.209Z,22.93
2023-03-18T13:21:48.489Z,22.95
2023-03-18T13:24:45.370Z,22.97
2023-03-18T13:27:26.700Z,23.04
2023-03-18T13:30:06.206Z,23.06
2023-03-18T13:32:38.809Z,23.10
2023-03-18T13:35:14.619Z,23.09
2023-03-18T13:38:06.462Z,23.11
2023-03-18T13:40:54.574Z,23.16
2023-03-18T13:43:24.150Z,23.21
2023-03-18T13:45:53.656Z,23.23
2023-03-18T13:48:33.647Z,23.24
2023-03-18T13:51:18.524Z,23.29
2023-03-18T13:53:47.509Z,23.36
2023-03-18T13:56:26.340Z,23.36
2023-03-18T13:58:54.318Z,23.42
2023-03-18T14:01:24.350Z,23.45
2023-03-18T14:03:51.119Z,23.46
2023-03-18T14:06:36.582Z,23.45
2023-03-18T14:09:22.893Z,23.48
2023-03-18T14:11:52.688Z,23.52
2023-03-18T14:14:53.682Z,23.52
2023-03-18T14:17:33.370Z,23.55
2023-03-18T14:20:38.747Z,23.56
2023-03-18T14:23:39.001Z,23.58
2023-03-18T14:26:08.588Z,23.64
2023-03-18T14:28:49.198Z,23.62
2023-03-18T14:31:39.049Z,23.63
2023-03-18T14:34:18.053Z,23.64
2023-03-18T14:36:54.207Z,23.66
2023-03-18T14:39:38.090Z,23.64
2023-03-18T14:42:24.952Z,23.63
2023-03-18T14:44:54.867Z,23.67
2023-03-18T14:47:38.163Z,23.65
2023-03-18T14:50:23.748Z,23.62
2023-03-18T14:53:11.714Z,23.64
2023-03-18T14:55:39.183Z,23.67
2023-03-18T14:58:05.855Z,23.65
2023-03-18T15:00:36.750Z,23.63
2023-03-18T15:03:11.890Z,23.60
2023-03-18T15:05:41.724Z,23.59
2023-03-18T15:08:22.629Z,23.54
2023-03-18T15:10:51.594Z,23.53
2023-03-18T15:13:20.935Z,23.49
2023-03-18T15:15:47.836Z,23.48
2023-03-18T15:18:21.335Z,23.45
2023-03-18T15:21:10.307Z,23.45
2023-03-18T15:23:40.602Z,23.45
2023-03-18T15:26:13.405Z,23.44
2023-03-18T15:28:39.772Z,23.43
2023-03-18T15:31:06.306Z,23.39
2023-03-18T15:33:38.320Z,23.34
2023-03-18T15:36:16.418Z,23.31
2023-03-18T15:38:51.201Z,23.28
2023-03-18T15:41:21.530Z,23.29
2023-03-18T15:43:53.847Z,23.23
2023-03-18T15:46:31.061Z,23.20
2023-03-18T15:49:02.441Z,23.20
2023-03-18T15:51:38.537Z,23.17
2023-03-18T15:54:15.045Z,23.13
2023-03-18T15:56:49.569Z,23.08
2023-03-18T15:59:29.617Z,23.05
2023-03-18T16:01:57.808Z,23.03
2023-03-18T16:04:25.408Z,22.98
2023-03-18T16:06:55.037Z,22.94
2023-03-18T16:09:24.032Z,22.86
2023-03-18T16:12:19.788Z,22.74
2023-03-18T16:14:49.125Z,22.70
2023-03-18T16:17:19.654Z,22.58
2023-03-18T16:19:54.406Z,22.48
2023-03-18T16:22:21.666Z,22.37
2023-03-18T16:24:48.248Z,22.31
2023-03-18T16:27:38.258Z,22.19
2023-03-18T16:30:07.112Z,22.17
2023-03-18T16:32:33.875Z,22.14
2023-03-18T16:35:00.763Z,22.09
2023-03-18T16:37:27.954Z,22.04
2023-03-18T16:39:56.039Z,22.00
2023-03-18T16:42:24.284Z,21.99
2023-03-18T16:44:51.650Z,21.95
2023-03-18T16:47:27.610Z,21.90
2023-03-18T16:49:55.371Z,21.90
2023-03-18T16:52:21.898Z,21.85
2023-03-18T16:54:48.639Z,21.81
2023-03-18T16:57:21.689Z,21.77
2023-03-18T16:59:50.959Z,21.75
2023-03-18T17:02:27.404Z,21.73
2023-03-18T17:04:54.014Z,21.73
2023-03-18T17:07:20.614Z,21.74
2023-03-18T17:09:47.175Z,21.74
2023-03-18T17:12:15.953Z,21.74
2023-03-18T17:14:51.764Z,21.74
2023-03-18T17:17:43.732Z,21.71
2023-03-18T17:20:19.909Z,21.71
2023-03-18T17:22:47.289Z,21.72
2023-03-18T17:25:14.412Z,21.70
2023-03-18T17:27:55.275Z,21.63
2023-03-18T17:30:33.618Z,21.64
2023-03-18T17:33:00.561Z,21.63
2023-03-18T17:35:27.308Z,21.66
2023-03-18T17:37:54.469Z,21.59
2023-03-18T17:40:22.557Z,21.53
2023-03-18T17:42:52.076Z,21.47
2023-03-18T17:45:33.531Z,21.41
2023-03-18T17:48:18.162Z,21.37
2023-03-18T17:50:44.861Z,21.36
2023-03-18T17:53:24.147Z,21.27
2023-03-18T17:55:50.830Z,21.24
2023-03-18T17:58:18.956Z,21.19
2023-03-18T18:00:46.906Z,21.13
2023-03-18T18:03:26.902Z,21.04
2023-03-18T18:05:55.243Z,21.00
2023-03-18T18:08:24.641Z,20.93
2023-03-18T18:10:54.162Z,20.86
2023-03-18T18:13:22.778Z,20.79
2023-03-18T18:15:50.581Z,20.74
2023-03-18T18:18:24.844Z,20.71
2023-03-18T18:20:57.255Z,20.63
2023-03-18T18:23:38.304Z,20.51
2023-03-18T18:26:08.130Z,20.45
2023-03-18T18:28:37.116Z,20.41
2023-03-18T18:31:05.743Z,20.36
2023-03-18T18:33:33.577Z,20.32
2023-03-18T18:36:00.802Z,20.29
2023-03-18T18:38:28.311Z,20.27
2023-03-18T18:40:56.488Z,20.25
2023-03-18T18:43:24.999Z,20.25
2023-03-18T18:45:52.638Z,20.24
2023-03-18T18:48:38.321Z,20.24
2023-03-18T18:51:05.180Z,20.25
2023-03-18T18:53:36.518Z,20.22
2023-03-18T18:56:23.586Z,20.17
2023-03-18T18:58:52.069Z,20.18
2023-03-18T19:01:20.066Z,20.15
2023-03-18T19:03:47.181Z,20.12
2023-03-18T19:06:40.673Z,20.05
2023-03-18T19:09:18.110Z,20.01
2023-03-18T19:11:46.188Z,20.00
2023-03-18T19:14:18.344Z,19.94
2023-03-18T19:16:45.726Z,19.92
2023-03-18T19:19:21.112Z,19.84
2023-03-18T19:21:49.040Z,19.82
2023-03-18T19:24:37.837Z,19.74
2023-03-18T19:27:10.062Z,19.73
2023-03-18T19:29:37.315Z,19.67
2023-03-18T19:32:04.379Z,19.61
2023-03-18T19:34:33.754Z,19.55
2023-03-18T19:37:03.012Z,19.48
2023-03-18T19:39:29.770Z,19.43
2023-03-18T19:41:56.342Z,19.37
2023-03-18T19:44:25.082Z,19.31
2023-03-18T19:46:53.987Z,19.26
2023-03-18T19:49:30.453Z,19.17
2023-03-18T19:51:57.383Z,19.14
2023-03-18T19:54:34.018Z,19.08
2023-03-18T19:57:06.767Z,19.03
2023-03-18T19:59:39.323Z,18.99
2023-03-18T20:02:28.951Z,18.90
2023-03-18T20:04:57.911Z,18.88
2023-03-18T20:07:27.242Z,18.83
2023-03-18T20:09:56.834Z,18.79
2023-03-18T20:12:36.580Z,18.69
2023-03-18T20:15:04.601Z,18.67
2023-03-18T20:17:47.745Z,18.59
2023-03-18T20:20:17.348Z,18.56
2023-03-18T20:22:48.313Z,18.51
2023-03-18T20:25:32.705Z,18.46
2023-03-18T20:28:00.160Z,18.44
2023-03-18T20:30:30.033Z,18.40
2023-03-18T20:32:58.371Z,18.37
2023-03-18T20:35:28.013Z,18.34
2023-03-18T20:37:56.064Z,18.32
2023-03-18T20:40:25.592Z,18.30
2023-03-18T20:42:53.130Z,18.28
2023-03-18T20:45:22.214Z,18.25
2023-03-18T20:47:49.215Z,18.24
2023-03-18T20:50:21.402Z,18.23
2023-03-18T20:52:49.127Z,18.22
2023-03-18T20:55:27.813Z,18.19
2023-03-18T20:57:54.362Z,18.21
2023-03-18T21:00:24.178Z,18.19
2023-03-18T21:02:54.504Z,18.17
2023-03-18T21:05:21.729Z,18.17
2023-03-18T21:07:48.706Z,18.15
2023-03-18T21:10:23.889Z,18.13
2023-03-18T21:12:51.734Z,18.14
2023-03-18T21:15:22.311Z,18.12
2023-03-18T21:17:50.516Z,18.12
2023-03-18T21:20:25.604Z,18.08
2023-03-18T21:22:52.977Z,18.08
2023-03-18T21:25:22.739Z,18.04
2023-03-18T21:27:50.088Z,18.04
2023-03-18T21:30:18.728Z,18.00
2023-03-18T21:32:46.179Z,18.00
2023-03-18T21:35:20.971Z,18.01
2023-03-18T21:37:47.968Z,18.00
2023-03-18T21:40:16.060Z,17.96
2023-03-18T21:42:43.941Z,17.93
2023-03-18T21:45:13.583Z,17.89
2023-03-18T21:47:40.474Z,17.87
2023-03-18T21:50:07.284Z,17.83
2023-03-18T21:52:36.934Z,17.81
2023-03-18T21:55:06.141Z,17.77
2023-03-18T21:57:32.849Z,17.73
2023-03-18T21:59:59.487Z,17.69
2023-03-18T22:02:27.598Z,17.67
2023-03-18T22:04:57.902Z,17.65
2023-03-18T22:07:26.191Z,17.63
2023-03-18T22:09:52.981Z,17.65
2023-03-18T22:12:24.003Z,17.64
2023-03-18T22:14:50.936Z,17.64
2023-03-18T22:17:29.252Z,17.62
2023-03-18T22:19:57.028Z,17.65
2023-03-18T22:22:26.185Z,17.64
2023-03-18T22:24:53.351Z,17.64
2023-03-18T22:27:23.323Z,17.62
2023-03-18T22:29:51.681Z,17.60
2023-03-18T22:32:44.727Z,17.56
2023-03-18T22:35:16.777Z,17.57
2023-03-18T22:37:43.155Z,17.56
2023-03-18T22:40:21.765Z,17.52
2023-03-18T22:42:50.438Z,17.54
2023-03-18T22:45:28.936Z,17.50
2023-03-18T22:47:56.877Z,17.53
2023-03-18T22:50:26.175Z,17.53
2023-03-18T22:53:05.942Z,17.47
2023-03-18T22:55:36.647Z,17.48
2023-03-18T22:58:03.439Z,17.45
2023-03-18T23:00:39.132Z,17.41
2023-03-18T23:03:28.873Z,17.36
2023-03-18T23:05:57.936Z,17.36
2023-03-18T23:08:27.544Z,17.35
2023-03-18T23:10:57.027Z,17.33
2023-03-18T23:13:28.830Z,17.31
2023-03-18T23:15:56.246Z,17.31
2023-03-18T23:18:23.597Z,17.30
2023-03-18T23:20:51.688Z,17.29
2023-03-18T23:23:18.498Z,17.29
2023-03-18T23:25:45.838Z,17.28
2023-03-18T23:28:12.474Z,17.27
2023-03-18T23:30:42.085Z,17.26
2023-03-18T23:33:09.508Z,17.24
2023-03-18T23:35:37.428Z,17.25
2023-03-18T23:38:07.731Z,17.23
2023-03-18T23:40:34.717Z,17.23
2023-03-18T23:43:01.683Z,17.19
2023-03-18T23:45:28.499Z,17.17
2023-03-18T23:47:56.000Z,17.15
2023-03-18T23:50:22.679Z,17.12
2023-03-18T23:52:49.075Z,17.10
2023-03-18T23:55:33.141Z,17.08
2023-03-18T23:58:03.388Z,17.06
